Atwell, West Virginia
Current Conditions -  °F | °C
As of 8:55 AM on Monday 24 Nov 2014 (Local Time) from KJFZ Reporting Station
Clear Clear  
Wind Chill: 61°   Ceiling: Unl
Heat Index: 61°   Visibility: 10mi
Dew Point: 47°   Wind: 12mph
Humidity: 61%   Direction: 200°SSW
Pressure: 29.68"   Gusts: 21mph
Location:  37.3433°N, 81.7826°W
Report Text: KJFZ 241355Z AUTO 20010G18KT 150V220 10SM CLR 16/09 A2968 RMK AO2 T01600085
Loading
Personal Weather Stations






























Interactive Weather Map New forecast layout! Learn more

10-Day Weather Forecast

Advertisements
Track Severe Weather on mobile